Résultats événements

26/08/2017 Triathlon du Levezou 2017-Triathlon M




Sortie natation

Arrivée vélo

Arrivée
Categorie:

Clt Temps de course Nom Dos Cat Temps sur l'intervalle Clt int. Gain
1 02:07:47 Jérôme-Jean-Christophe-et-Cyril 256 RELH 00:39:54 5 0
2 02:13:07 CHARTON Hugo 23 MS2 00:39:08 3 3
3 02:13:45 Eléna et les garçons 254 RELM 00:42:30 12 -1
4 02:14:48 la tri 46 262 RELH 00:42:30 11 0
5 02:15:52 pierrat denis 162 MV4 00:43:58 17 -2
6 02:18:19 MILLAU TRIATHLON 270 RELH 00:36:07 1 18
7 02:18:22 Les Triphasés 267 RELH 00:37:12 2 11
8 02:19:58 Les 3 freres 264 RELH 00:41:38 10 0
9 02:20:45 mignon thierry 98 MV2 00:40:54 6 0
10 02:21:50 SOUBIRAN Aurélien 80 MS3 00:41:26 7 4
11 02:22:31 MARIONNEAU Franck 207 FV3 00:42:30 13 1
12 02:23:42 Gallou Antoine 171 MS1 00:47:14 36 -6
13 02:24:31 CHAMPINOT Rémi 121 MS3 00:43:43 15 4
14 02:24:47 Dubocquet xavier 101 FS2 00:44:52 22 -3
15 02:25:02 Stoltz Charles-Hugo 227 MJU 00:47:24 38 -8
16 02:26:02 Girard Pierre 156 MS1 00:46:08 28 -6
17 02:26:19 SEIJO Marc 114 MV3 00:45:07 24 2
18 02:26:25 JAUZAC Rémi 149 MJU 00:41:35 9 17
19 02:26:38 VERON Matthieu 21 MS1 00:41:27 8 20
20 02:27:07 LAPORTE aurelien 94 MV1 00:44:39 19 7
21 02:27:26 crampette bruno 142 MV3 00:45:20 25 2
22 02:27:31 Levezou forever 269 RELM 00:43:18 14 10
23 02:28:09 Alazard Thibaut 104 MS1 00:43:50 16 10
24 02:28:43 GUIAVARCH Ronan 50 MV1 00:45:52 27 4
25 02:28:48 Lacombe Frédéric 46 MS1 00:48:02 47 -9
26 02:29:15 Benoit Barguès 120 MS3 00:47:51 43 -6
27 02:29:27 Pribilski Maxime 189 MS2 00:39:15 4 45
28 02:29:47 Maurel remi 204 MS4 00:44:13 18 15
29 02:29:53 Team Conques Triathlon 272 RELH 00:44:46 21 9
30 02:30:26 MARYSAEL Didier 231 MV3 00:50:04 73 -17
31 02:31:24 Promocash 271 RELM 00:48:10 48 -2
32 02:32:00 DUBREUILH Alexandre 117 MV1 00:49:39 64 -6
33 02:32:02 URUTY ARNAUD 124 MS1 00:45:40 26 15
34 02:33:14 Amengual Romain 194 MS2 00:51:10 84 -12
35 02:33:49 Defix Thomas 193 MS3 00:50:02 71 -4
36 02:34:07 sprenger florian 184 MS2 00:47:34 40 13
37 02:34:43 girard mathieu 161 MS2 00:48:34 51 9
38 02:35:29 courbebaisse laurent 185 MV3 00:48:40 52 12
39 02:35:32 NEYROU Philippe 27 MS4 00:50:05 74 3
40 02:35:44 Fages Dimitri 130 MS3 00:46:08 29 26
41 02:35:50 ASPE Julien 178 MS3 00:50:35 79 -1
42 02:35:58 ricard justin 228 MS2 00:53:45 108 -17
43 02:36:11 GIRARDEAU Bertrand 219 MV2 00:47:55 45 15
44 02:36:22 TESSARIOL Romain 73 MS2 00:51:41 89 -10
45 02:36:26 Delbouys Vincent 125 MS3 00:46:51 33 20
46 02:36:27 fogelgesang eric 170 MS4 00:52:45 100 -16
47 02:36:34 les incroyables 266 RELH 00:44:57 23 28
48 02:36:40 LETEVE Stéphane 31 MV1 00:47:53 44 13
49 02:36:42 ASB 250 RELH 00:46:37 30 20
50 02:36:59 Laudrin jean-marc 7 MV3 00:44:43 20 29
51 02:37:11 Pavard Anne sophie 107 FS3 00:49:02 56 6
52 02:37:26 DALET Benjamin 176 MS1 00:55:27 129 -31
53 02:37:36 Joubert Nicolas 183 MS4 00:49:47 67 1
54 02:37:46 Reynes Arthur 167 MS1 00:51:53 92 -9
55 02:38:26 Rakotonirainy andoniaina 221 MV1 00:53:34 105 -19
56 02:38:29 Couly Emmanuel 200 MS3 00:50:20 76 -1
57 02:38:57 Dumas Christophe 17 MS2 00:53:35 106 -16
58 02:39:03 Boudon Frédéric 191 MS3 00:52:13 93 -7
59 02:39:16 FAGES Damien 71 MS3 00:49:08 58 11
60 02:39:32 COLOMBI Romain 61 MS3 00:49:11 60 13
61 02:39:47 campanac bruno 29 MS3 00:48:00 46 15
62 02:39:48 Roques Benoit 67 MS3 00:51:38 88 -6
63 02:40:01 DELETTRE PIERRE 181 MV6 00:47:45 42 15
64 02:40:11 MALBOSC FRANCK 115 MV2 00:53:50 111 -17
65 02:40:26 D'Andréa Romain 212 MS3 00:48:54 55 9
66 02:41:25 Les truffadous 268 RELM 00:47:38 41 9
67 02:41:55 calvayrac didier 100 MV2 00:49:21 61 13
68 02:42:19 DESBARATS THIERRY 128 MV3 00:47:28 39 21
69 02:42:56 Munoz Matthieu 211 MS3 00:46:43 32 29
70 02:43:11 SOULIE Daniel 177 MV2 00:49:06 57 17
71 02:43:19 SIMELIO ANTONI 174 MS4 00:49:25 62 15
72 02:43:25 LUTSEN Cédric 40 MS4 00:54:48 123 -13
73 02:43:34 Audibert Karoll 197 MV2 00:54:00 113 -9
74 02:43:36 cechau triathlon 251 RELM 00:58:36 150 -37
75 02:43:42 galle grégory 138 MV1 00:55:55 131 -22
76 02:43:54 roubeyrotte jerome 91 MV1 00:53:50 110 -8
77 02:44:18 soula guillaume 105 MS4 00:54:48 124 -14
78 02:44:36 Bernadou Antony 140 FS2 00:48:22 50 21
79 02:44:56 TRAVERS Pascal 14 MS4 00:49:40 65 15
80 02:45:08 BRUNET jérôme 220 MV1 00:51:42 90 3
81 02:45:13 Garric Bastien 47 MS3 00:50:10 75 10
82 02:45:23 JSBC finishers 257 RELH 00:46:42 31 32
83 02:45:33 LE SAUSSE Marc 37 MS2 00:53:41 107 -6
84 02:45:39 DUMONTEL Herve 192 MV3 00:58:45 152 -32
85 02:45:40 van Roessel Marlène 88 FS2 00:50:30 78 8
86 02:45:45 GROU RENE 172 MV6 00:52:36 98 -4
87 02:46:25 Zamora Julien 163 MS2 00:52:57 101 -3
88 02:46:35 Fages Maxime 34 MS3 00:49:56 69 14
89 02:46:46 FEDELE NICOLAS 145 MV1 01:00:54 172 -45
90 02:47:09 DEFRANCE jf 103 MS4 00:57:24 143 -23
91 02:47:28 MARTINEZ Andres 168 MS2 00:52:23 95 1
92 02:47:33 Hugla Sebastien 76 MV2 00:49:44 66 16
93 02:48:07 Margareth Alcaide 118 FV2 00:51:01 81 12
94 02:49:06 Druilhe Cyril 179 MV1 00:46:59 35 45
95 02:49:12 Rous Fabrice 78 MV1 00:49:10 59 27
96 02:49:18 lefevre joddy 119 MS3 00:47:23 37 41
97 02:49:26 Dagnac Eric 144 MV2 00:54:25 118 -7
98 02:49:31 ROQUES Mickaël 60 MS1 00:49:57 70 22
99 02:49:35 POUX nicolas 51 MV1 00:46:53 34 43
100 02:49:51 MERLIN Christophe 224 MV1 00:51:09 83 15
101 02:50:32 Charlot Solenne 195 FS1 01:01:49 182 -41
102 02:50:49 Thomas Joël 4 MV3 00:52:41 99 10
103 02:51:02 Salinier Vincent 198 MV3 00:54:50 125 -6
104 02:51:33 les finichers 265 RELM 00:54:37 121 0
105 02:51:36 GALISSAIRE FRANCK 214 MV1 00:51:08 82 21
106 02:51:48 Roussel Sébastien 86 MV1 01:01:39 180 -35
107 02:51:57 MARTIN Manuel 232 MS3 00:59:09 157 -26
108 02:52:04 Candel Jean-Philippe 226 MV4 01:02:52 189 -46
109 02:52:14 lacoste pascale 215 FV1 00:50:29 77 26
110 02:52:26 VALLEROT J-Nicolas 12 MS3 00:57:09 142 -15
111 02:52:27 La Team Serin de Vayssous 5 260 RELH 00:48:41 53 40
112 02:53:00 fournier cyril 36 MV2 00:56:21 134 -9
113 02:53:02 Bourniquel Pierre 158 MS1 00:54:06 115 4
114 02:53:22 Bul Patrick 165 MV1 00:53:27 104 7
115 02:53:24 SUZANNE Remy 216 MV2 00:52:21 94 16
116 02:53:28 Dalsheimer Nicolas 136 MS3 00:50:52 80 25
117 02:53:32 TARDIEU Patrick 28 MV5 00:49:29 63 38
118 02:53:33 Crespo Yannick 44 MS4 00:59:15 159 -30
119 02:54:18 In Extremis 255 RELH 00:54:03 114 6
120 02:54:41 béquet stéphane 132 MV2 00:57:34 144 -14
121 02:54:57 GAMBINI Romain 39 MS2 00:52:35 97 19
122 02:55:16 Le grand 2 263 RELH 00:48:46 54 49
123 02:55:49 GATCHITCH Francois 202 MS4 00:51:36 87 35
124 02:56:00 BESOMBE Philippe 206 MV2 00:53:08 103 35
125 02:56:14 Besse Gaëtan 10 MS2 00:52:26 96 27
126 02:56:18 Solier Mathieu 169 MS3 00:57:07 141 -8
127 02:56:25 CASSAGNES jérôme 180 MV4 00:58:19 148 -16
128 02:56:54 pasturel romain 225 MS2 00:48:21 49 49
129 02:57:01 DEL AMO hélène 95 FS4 00:56:04 132 0
130 02:57:42 Gamiette Jonathan 6 MS3 00:54:28 119 19
131 02:58:40 TEAM'TN 274 RELH 00:49:52 68 47
132 02:58:42 QUAIREL HERVE 92 MV2 00:54:11 117 29
133 02:58:49 CAUMONT CHRISTIAN 72 MV4 01:02:13 184 -32
134 02:58:58 MONTRIEUL Maud 188 FV1 00:56:09 133 12
135 02:59:20 surret gerard 135 MV4 01:02:56 190 -35
136 02:59:29 oules philippe 187 MV1 00:50:03 72 47
137 02:59:39 CHELMI STEPHANE 43 MV1 01:01:35 179 -27
138 03:00:02 Vernhes Jean-Adrien 201 MS2 00:53:47 109 31
139 03:00:21 mercadier jean laurent 157 MV1 01:00:57 174 -20
140 03:00:44 VALENTIN Luc 8 MV2 00:54:30 120 27
141 03:00:50 PETIT PIERRE 64 MV3 00:56:26 136 19
142 03:00:59 ROIRON JEAN MICHEL 129 MV2 00:59:40 161 -10
143 03:01:07 laurens frederic 209 MS4 00:58:21 149 2
144 03:01:09 Roumieu Thomas 152 MS3 00:57:06 140 10
145 03:01:22 ZEVACO Julien 33 MS4 00:55:11 127 20
146 03:01:34 AMAT JEROME 223 MV1 01:01:30 178 -23
147 03:01:42 Lacroix Sylvain 97 MV1 01:02:50 188 -31
148 03:02:02 fradier jean-marc 143 MV4 01:00:11 163 -12
149 03:02:21 DEPUYDT David 5 FV2 00:59:13 158 -1
150 03:02:35 COMTET Frédéric 210 MV4 00:56:25 135 14
151 03:02:37 RAYMOND Bertrand 147 MV2 00:58:48 153 2
152 03:02:52 LEROUX Olivier 2 MS4 01:01:16 175 -19
153 03:02:56 RAYNAL JEAN SEBASTIEN 203 MV1 00:51:13 85 42
154 03:03:02 Villemain France 134 FV2 00:57:53 145 8
155 03:03:04 LA CAVALERIE 258 RELM 01:01:24 176 -21
156 03:03:12 Alazard Julien 79 MS3 00:59:02 154 1
157 03:03:17 Salvat Mikael 155 MV1 00:53:53 112 25
158 03:03:19 Mouysset Jean-Philippe 108 MV2 00:56:36 137 14
159 03:04:02 CARDOSO Serge 57 MV1 00:54:40 122 21
160 03:04:38 Ronceray Lilian 208 MS4 01:06:21 208 -47
161 03:04:38 Lemasson Vincent 109 MS1 01:08:43 215 -65
162 03:04:52 hanart antony 48 MV1 01:00:31 167 -3
163 03:05:16 Gallego Florent 11 MS2 00:55:35 130 22
164 03:05:34 Perez Damien 18 MS2 00:54:59 126 26
165 03:05:44 MONTEL Ludovic 59 MV1 00:58:40 151 8
166 03:06:36 PUKROP Adrien 233 MS3 01:08:56 216 -59
167 03:07:00 DARCOURT Alexandre 230 MS3 01:05:01 201 -29
168 03:07:04 COUGOUREUX 252 RELM 01:00:49 171 0
169 03:07:35 La Team Serin de Vayssous 6 261 RELM 00:51:18 86 41
170 03:08:09 TAILLEFER Pierre-Jean 70 MS4 01:00:13 164 5
171 03:08:20 TheBadBoys 275 RELH 00:54:07 116 35
172 03:08:30 Parmentier Bernard 75 MV3 01:03:08 191 -9
173 03:08:33 Lallemand Thomas 45 MS3 00:57:02 139 20
174 03:08:47 dudon yves 154 MV3 00:59:25 160 7
175 03:09:22 de Bellocq Hubert 133 MV2 01:09:15 220 -51
176 03:09:28 AUGER LOIC 150 MV3 01:05:53 205 -26
177 03:09:29 BELLOTTO FRANCIS 122 MV5 01:05:24 202 -21
178 03:09:30 PETIT JC 173 MV4 00:56:40 138 21
179 03:09:51 Tavinnhan Brianceau Aline Chau 30 FS4 00:57:56 146 17
180 03:10:04 Guinard-Brun Félix 166 MS2 01:00:32 168 4
181 03:10:15 revel cedric 89 MV1 01:09:14 219 -51
182 03:10:30 brunet emmanuel 218 MV3 01:09:47 221 -54
183 03:10:45 Carmaran Patrice 182 MV1 01:08:00 214 -39
184 03:10:56 POUJADE Guillaume 99 MV1 00:59:55 162 7
185 03:11:18 bouche francois 56 MV5 01:03:40 195 -11
186 03:11:26 latger bernard 113 MV4 00:59:08 156 11
187 03:11:27 Cano Yann 53 MV2 01:01:26 177 -1
188 03:11:47 mauroy dominique 22 FV1 01:00:24 165 4
189 03:12:03 Plenecassagne DAVID 74 MV1 01:04:05 197 -13
190 03:13:50 LEPARQ Christophe 205 MV1 01:02:10 183 4
191 03:14:02 ROUX Antoine 93 MS2 00:59:07 155 17
192 03:14:04 torreilles Francois 77 MV2 01:00:34 169 10
193 03:14:08 JONES Hywel 26 MS4 01:04:51 200 -14
194 03:15:04 BALZON VALERIE 151 FV3 01:00:55 173 11
195 03:15:28 GODBARGE Christophe 159 MV4 01:09:02 218 -25
196 03:15:40 Sangra Frédéric 62 MV3 01:05:29 204 -9
197 03:15:40 Mastorino Eric 111 MV3 01:05:28 203 -9
198 03:15:54 Le guen Mélissa 137 FS2 00:55:19 128 23
199 03:16:40 DUPUIS Philippe 25 MV2 00:53:04 102 28
200 03:16:55 brothier isabelle 90 FV2 01:02:14 185 7
201 03:17:08 TEAM RAYNAL 273 RELH 01:06:33 211 -12
202 03:17:12 MARGAS jérôme 52 MV2 01:04:20 198 -2
203 03:17:25 Brugere Pierre 84 MS1 01:00:45 170 8
204 03:18:01 Griguer Florence 102 FV1 00:51:46 91 29
205 03:18:31 MANZANO TOMAS Lucia 35 FS3 01:06:01 206 -7
206 03:20:28 bregeras chris 222 MS4 01:07:35 213 -5
207 03:20:50 Schandeler Baptiste 16 MS2 01:14:37 226 -41
208 03:20:56 VALETTE ANNE 81 FV2 01:01:45 181 7
209 03:21:45 Alazard adrien 106 MS2 01:06:24 209 0
210 03:22:24 RIVIERE BERNARD 82 MV6 01:03:52 196 3
211 03:22:41 SPERY SOPHIE 19 FV2 01:00:25 166 15
212 03:23:16 magana aude 196 FV2 01:03:29 194 5
213 03:23:18 ROTA STEPHANE 83 MV2 01:20:34 230 -70
214 03:24:13 CARCY Christelle 13 FV2 01:02:45 186 9
215 03:25:47 Jourdain Sylvain 164 MS4 01:06:26 210 1
216 03:25:55 CALAMOTE Sabrina 69 FV1 01:04:41 199 6
217 03:26:40 AZAM CATHERINE 229 FV2 01:06:07 207 3
218 03:27:29 Pochon Frédéric 123 MV3 01:13:54 224 -15
219 03:28:17 PETIT DOMINIQUE 65 FV4 01:02:47 187 12
220 03:28:29 dasibat christelle 55 FV1 01:03:28 193 10
221 03:28:39 BOULIER Céline 87 FS3 01:14:32 225 -17
222 03:28:40 ISAMBERT Elsa 146 FS1 01:06:46 212 2
223 03:29:00 Cricri Team 253 RELM 00:57:58 147 12
224 03:32:51 Médard Cécile 54 FS2 01:03:21 192 10
225 03:33:14 cuq Karine 213 FS3 01:09:00 217 4
226 03:33:50 TETU FABRICE 110 MV2 01:09:59 222 2
227 03:35:10 HERRMANN PASCAL 131 MV2 01:13:05 223 -2
228 03:37:26 BARON Thierry 127 MV5 01:18:31 229 -14
229 03:38:06 MARTIN Frédéric 3 MS4 01:17:35 228 -10
230 03:42:57 belloc baptiste 66 MS3 01:25:49 231 -18
231 03:50:19 O'NEILL Fran 24 FS3 01:17:24 227 5


Restez connectés à vos performances